sensor_id;sensor_type;location;lat;lon;timestamp;P1;durP1;ratioP1;P2;durP2;ratioP2
73550;SDS011;61816;53.582;10.096;2023-04-15T00:00:53;13.20;;;9.15;;
73550;SDS011;61816;53.582;10.096;2023-04-15T00:03:18;13.23;;;8.32;;
73550;SDS011;61816;53.582;10.096;2023-04-15T00:05:44;15.05;;;9.25;;
73550;SDS011;61816;53.582;10.096;2023-04-15T00:08:09;16.00;;;10.10;;
73550;SDS011;61816;53.582;10.096;2023-04-15T00:10:34;14.95;;;8.80;;
73550;SDS011;61816;53.582;10.096;2023-04-15T00:13:00;15.40;;;8.68;;
73550;SDS011;61816;53.582;10.096;2023-04-15T00:15:26;15.48;;;9.88;;
73550;SDS011;61816;53.582;10.096;2023-04-15T00:17:51;14.27;;;9.50;;
73550;SDS011;61816;53.582;10.096;2023-04-15T00:20:16;13.68;;;9.65;;
73550;SDS011;61816;53.582;10.096;2023-04-15T00:22:42;15.20;;;9.52;;
73550;SDS011;61816;53.582;10.096;2023-04-15T00:25:07;16.33;;;9.90;;
73550;SDS011;61816;53.582;10.096;2023-04-15T00:27:33;17.10;;;10.38;;
73550;SDS011;61816;53.582;10.096;2023-04-15T00:29:58;19.05;;;10.50;;
73550;SDS011;61816;53.582;10.096;2023-04-15T00:32:24;18.25;;;11.55;;
73550;SDS011;61816;53.582;10.096;2023-04-15T00:34:49;14.95;;;10.95;;
73550;SDS011;61816;53.582;10.096;2023-04-15T00:37:15;17.75;;;12.07;;
73550;SDS011;61816;53.582;10.096;2023-04-15T00:39:40;20.15;;;11.65;;
73550;SDS011;61816;53.582;10.096;2023-04-15T00:42:05;18.88;;;13.20;;
73550;SDS011;61816;53.582;10.096;2023-04-15T00:44:31;21.98;;;12.75;;
73550;SDS011;61816;53.582;10.096;2023-04-15T00:47:00;16.98;;;12.18;;
73550;SDS011;61816;53.582;10.096;2023-04-15T00:49:26;18.58;;;12.50;;
73550;SDS011;61816;53.582;10.096;2023-04-15T00:51:53;20.33;;;13.35;;
73550;SDS011;61816;53.582;10.096;2023-04-15T00:54:18;15.63;;;11.88;;
73550;SDS011;61816;53.582;10.096;2023-04-15T00:56:43;20.23;;;12.70;;
73550;SDS011;61816;53.582;10.096;2023-04-15T00:59:09;21.98;;;12.55;;
73550;SDS011;61816;53.582;10.096;2023-04-15T01:01:35;19.98;;;13.02;;
73550;SDS011;61816;53.582;10.096;2023-04-15T01:04:01;21.33;;;12.10;;
73550;SDS011;61816;53.582;10.096;2023-04-15T01:06:27;21.33;;;12.75;;
73550;SDS011;61816;53.582;10.096;2023-04-15T01:08:53;19.73;;;12.63;;
73550;SDS011;61816;53.582;10.096;2023-04-15T01:11:19;22.35;;;13.90;;
73550;SDS011;61816;53.582;10.096;2023-04-15T01:13:46;19.88;;;13.05;;
73550;SDS011;61816;53.582;10.096;2023-04-15T01:16:12;21.58;;;14.40;;
73550;SDS011;61816;53.582;10.096;2023-04-15T01:18:38;22.73;;;15.15;;
73550;SDS011;61816;53.582;10.096;2023-04-15T01:21:04;28.35;;;14.00;;
73550;SDS011;61816;53.582;10.096;2023-04-15T01:23:30;24.05;;;14.18;;
73550;SDS011;61816;53.582;10.096;2023-04-15T01:25:56;19.77;;;13.50;;
73550;SDS011;61816;53.582;10.096;2023-04-15T01:28:23;22.67;;;14.35;;
73550;SDS011;61816;53.582;10.096;2023-04-15T01:30:49;22.92;;;14.23;;
73550;SDS011;61816;53.582;10.096;2023-04-15T01:33:29;25.73;;;15.32;;
73550;SDS011;61816;53.582;10.096;2023-04-15T01:35:55;25.23;;;15.80;;
73550;SDS011;61816;53.582;10.096;2023-04-15T01:38:21;22.58;;;14.52;;
73550;SDS011;61816;53.582;10.096;2023-04-15T01:40:46;25.23;;;14.07;;
73550;SDS011;61816;53.582;10.096;2023-04-15T01:43:12;25.75;;;15.45;;
73550;SDS011;61816;53.582;10.096;2023-04-15T01:45:37;28.27;;;15.68;;
73550;SDS011;61816;53.582;10.096;2023-04-15T01:48:02;22.00;;;14.98;;
73550;SDS011;61816;53.582;10.096;2023-04-15T01:50:28;25.00;;;16.75;;
73550;SDS011;61816;53.582;10.096;2023-04-15T01:52:53;26.67;;;16.35;;
73550;SDS011;61816;53.582;10.096;2023-04-15T01:55:19;28.05;;;15.52;;
73550;SDS011;61816;53.582;10.096;2023-04-15T01:57:44;22.58;;;15.02;;
73550;SDS011;61816;53.582;10.096;2023-04-15T02:00:10;26.77;;;16.73;;
73550;SDS011;61816;53.582;10.096;2023-04-15T02:02:36;28.55;;;15.88;;
73550;SDS011;61816;53.582;10.096;2023-04-15T02:05:01;27.17;;;16.67;;
73550;SDS011;61816;53.582;10.096;2023-04-15T02:07:28;26.02;;;14.93;;
73550;SDS011;61816;53.582;10.096;2023-04-15T02:09:56;27.48;;;16.00;;
73550;SDS011;61816;53.582;10.096;2023-04-15T02:12:21;27.52;;;15.88;;
73550;SDS011;61816;53.582;10.096;2023-04-15T02:14:47;31.60;;;18.45;;
73550;SDS011;61816;53.582;10.096;2023-04-15T02:17:12;30.75;;;17.98;;
73550;SDS011;61816;53.582;10.096;2023-04-15T02:19:37;34.00;;;20.52;;
73550;SDS011;61816;53.582;10.096;2023-04-15T02:22:04;33.05;;;19.70;;
73550;SDS011;61816;53.582;10.096;2023-04-15T02:24:32;35.47;;;17.88;;
73550;SDS011;61816;53.582;10.096;2023-04-15T02:26:57;38.40;;;20.38;;
73550;SDS011;61816;53.582;10.096;2023-04-15T02:29:22;35.45;;;19.52;;
73550;SDS011;61816;53.582;10.096;2023-04-15T02:31:48;39.00;;;20.38;;
73550;SDS011;61816;53.582;10.096;2023-04-15T02:34:14;34.20;;;20.75;;
73550;SDS011;61816;53.582;10.096;2023-04-15T02:36:39;36.63;;;20.20;;
73550;SDS011;61816;53.582;10.096;2023-04-15T02:39:05;37.05;;;19.63;;
73550;SDS011;61816;53.582;10.096;2023-04-15T02:41:31;39.72;;;21.55;;
73550;SDS011;61816;53.582;10.096;2023-04-15T02:43:56;35.35;;;19.60;;
73550;SDS011;61816;53.582;10.096;2023-04-15T02:46:21;39.05;;;20.60;;
73550;SDS011;61816;53.582;10.096;2023-04-15T02:48:47;37.90;;;19.85;;
73550;SDS011;61816;53.582;10.096;2023-04-15T02:51:14;45.50;;;22.73;;
73550;SDS011;61816;53.582;10.096;2023-04-15T02:53:41;45.85;;;22.85;;
73550;SDS011;61816;53.582;10.096;2023-04-15T02:56:07;43.97;;;22.65;;
73550;SDS011;61816;53.582;10.096;2023-04-15T02:58:33;45.67;;;22.35;;
73550;SDS011;61816;53.582;10.096;2023-04-15T03:01:00;52.17;;;24.02;;
73550;SDS011;61816;53.582;10.096;2023-04-15T03:03:25;49.55;;;24.08;;
73550;SDS011;61816;53.582;10.096;2023-04-15T03:05:52;52.05;;;23.35;;
73550;SDS011;61816;53.582;10.096;2023-04-15T03:08:17;55.65;;;26.13;;
73550;SDS011;61816;53.582;10.096;2023-04-15T03:10:42;58.20;;;25.85;;
73550;SDS011;61816;53.582;10.096;2023-04-15T03:13:08;48.17;;;23.75;;
73550;SDS011;61816;53.582;10.096;2023-04-15T03:15:33;55.78;;;23.65;;
73550;SDS011;61816;53.582;10.096;2023-04-15T03:17:58;64.18;;;26.42;;
73550;SDS011;61816;53.582;10.096;2023-04-15T03:20:24;64.82;;;27.90;;
73550;SDS011;61816;53.582;10.096;2023-04-15T03:22:49;55.33;;;26.65;;
73550;SDS011;61816;53.582;10.096;2023-04-15T03:25:15;66.82;;;28.77;;
73550;SDS011;61816;53.582;10.096;2023-04-15T03:27:40;67.55;;;29.33;;
73550;SDS011;61816;53.582;10.096;2023-04-15T03:30:06;57.63;;;26.77;;
73550;SDS011;61816;53.582;10.096;2023-04-15T03:32:32;70.35;;;29.02;;
73550;SDS011;61816;53.582;10.096;2023-04-15T03:34:58;68.82;;;27.98;;
73550;SDS011;61816;53.582;10.096;2023-04-15T03:37:23;72.18;;;29.55;;
73550;SDS011;61816;53.582;10.096;2023-04-15T03:39:49;64.38;;;28.23;;
73550;SDS011;61816;53.582;10.096;2023-04-15T03:42:15;63.58;;;27.52;;
73550;SDS011;61816;53.582;10.096;2023-04-15T03:44:40;65.43;;;27.42;;
73550;SDS011;61816;53.582;10.096;2023-04-15T03:47:06;73.20;;;30.38;;
73550;SDS011;61816;53.582;10.096;2023-04-15T03:49:31;73.75;;;29.95;;
73550;SDS011;61816;53.582;10.096;2023-04-15T03:51:57;74.82;;;33.15;;
73550;SDS011;61816;53.582;10.096;2023-04-15T03:54:22;73.60;;;31.52;;
73550;SDS011;61816;53.582;10.096;2023-04-15T03:56:47;79.53;;;32.17;;
73550;SDS011;61816;53.582;10.096;2023-04-15T03:59:13;80.05;;;34.53;;
73550;SDS011;61816;53.582;10.096;2023-04-15T04:01:38;78.38;;;31.38;;
73550;SDS011;61816;53.582;10.096;2023-04-15T04:04:04;102.32;;;40.00;;
73550;SDS011;61816;53.582;10.096;2023-04-15T04:06:29;86.28;;;35.80;;
73550;SDS011;61816;53.582;10.096;2023-04-15T04:08:55;97.00;;;36.33;;
73550;SDS011;61816;53.582;10.096;2023-04-15T04:11:20;88.20;;;35.83;;
73550;SDS011;61816;53.582;10.096;2023-04-15T04:13:46;99.07;;;39.67;;
73550;SDS011;61816;53.582;10.096;2023-04-15T04:16:11;99.13;;;38.75;;
73550;SDS011;61816;53.582;10.096;2023-04-15T04:18:36;105.43;;;40.80;;
73550;SDS011;61816;53.582;10.096;2023-04-15T04:21:02;110.63;;;39.42;;
73550;SDS011;61816;53.582;10.096;2023-04-15T04:23:27;123.40;;;45.40;;
73550;SDS011;61816;53.582;10.096;2023-04-15T04:25:52;117.68;;;42.15;;
73550;SDS011;61816;53.582;10.096;2023-04-15T04:28:18;127.88;;;45.65;;
73550;SDS011;61816;53.582;10.096;2023-04-15T04:30:43;134.25;;;43.97;;
73550;SDS011;61816;53.582;10.096;2023-04-15T04:33:09;127.38;;;45.10;;
73550;SDS011;61816;53.582;10.096;2023-04-15T04:35:35;125.05;;;45.47;;
73550;SDS011;61816;53.582;10.096;2023-04-15T04:38:02;121.15;;;44.38;;
73550;SDS011;61816;53.582;10.096;2023-04-15T04:40:28;153.32;;;54.55;;
73550;SDS011;61816;53.582;10.096;2023-04-15T04:42:53;132.13;;;48.05;;
73550;SDS011;61816;53.582;10.096;2023-04-15T04:45:19;143.55;;;47.85;;
73550;SDS011;61816;53.582;10.096;2023-04-15T04:47:44;142.27;;;48.67;;
73550;SDS011;61816;53.582;10.096;2023-04-15T04:50:10;155.45;;;51.85;;
73550;SDS011;61816;53.582;10.096;2023-04-15T04:52:36;159.68;;;53.10;;
73550;SDS011;61816;53.582;10.096;2023-04-15T04:55:02;170.00;;;55.47;;
73550;SDS011;61816;53.582;10.096;2023-04-15T04:57:28;169.65;;;55.45;;
73550;SDS011;61816;53.582;10.096;2023-04-15T04:59:53;186.63;;;57.72;;
73550;SDS011;61816;53.582;10.096;2023-04-15T05:02:18;159.13;;;55.90;;
73550;SDS011;61816;53.582;10.096;2023-04-15T05:04:44;177.60;;;60.85;;
73550;SDS011;61816;53.582;10.096;2023-04-15T05:07:09;172.35;;;59.95;;
73550;SDS011;61816;53.582;10.096;2023-04-15T05:09:34;179.68;;;57.97;;
73550;SDS011;61816;53.582;10.096;2023-04-15T05:12:01;170.00;;;62.53;;
73550;SDS011;61816;53.582;10.096;2023-04-15T05:14:26;181.40;;;61.42;;
73550;SDS011;61816;53.582;10.096;2023-04-15T05:16:52;157.98;;;58.10;;
73550;SDS011;61816;53.582;10.096;2023-04-15T05:19:17;163.10;;;60.03;;
73550;SDS011;61816;53.582;10.096;2023-04-15T05:21:43;154.13;;;65.45;;
73550;SDS011;61816;53.582;10.096;2023-04-15T05:24:08;153.88;;;58.92;;
73550;SDS011;61816;53.582;10.096;2023-04-15T05:26:33;175.48;;;62.97;;
73550;SDS011;61816;53.582;10.096;2023-04-15T05:28:59;154.68;;;60.58;;
73550;SDS011;61816;53.582;10.096;2023-04-15T05:31:24;166.95;;;65.00;;
73550;SDS011;61816;53.582;10.096;2023-04-15T05:33:50;166.93;;;62.65;;
73550;SDS011;61816;53.582;10.096;2023-04-15T05:36:15;139.63;;;60.08;;
73550;SDS011;61816;53.582;10.096;2023-04-15T05:38:41;138.63;;;57.60;;
73550;SDS011;61816;53.582;10.096;2023-04-15T05:41:06;151.77;;;58.45;;
73550;SDS011;61816;53.582;10.096;2023-04-15T05:43:32;168.70;;;61.78;;
73550;SDS011;61816;53.582;10.096;2023-04-15T05:45:57;164.38;;;64.15;;
73550;SDS011;61816;53.582;10.096;2023-04-15T05:48:23;163.48;;;62.35;;
73550;SDS011;61816;53.582;10.096;2023-04-15T05:50:48;165.65;;;63.95;;
73550;SDS011;61816;53.582;10.096;2023-04-15T05:53:14;153.27;;;59.08;;
73550;SDS011;61816;53.582;10.096;2023-04-15T05:55:39;169.32;;;63.03;;
73550;SDS011;61816;53.582;10.096;2023-04-15T05:58:05;137.32;;;56.83;;
73550;SDS011;61816;53.582;10.096;2023-04-15T06:00:30;166.65;;;63.15;;
73550;SDS011;61816;53.582;10.096;2023-04-15T06:02:56;159.98;;;61.67;;
73550;SDS011;61816;53.582;10.096;2023-04-15T06:05:23;164.43;;;63.63;;
73550;SDS011;61816;53.582;10.096;2023-04-15T06:07:48;173.32;;;68.35;;
73550;SDS011;61816;53.582;10.096;2023-04-15T06:10:14;178.02;;;66.95;;
73550;SDS011;61816;53.582;10.096;2023-04-15T06:12:40;184.10;;;67.50;;
73550;SDS011;61816;53.582;10.096;2023-04-15T06:15:05;183.07;;;66.47;;
73550;SDS011;61816;53.582;10.096;2023-04-15T06:17:33;189.32;;;66.40;;
73550;SDS011;61816;53.582;10.096;2023-04-15T06:19:59;184.52;;;71.72;;
73550;SDS011;61816;53.582;10.096;2023-04-15T06:22:24;190.50;;;69.25;;
73550;SDS011;61816;53.582;10.096;2023-04-15T06:24:50;208.60;;;71.45;;
73550;SDS011;61816;53.582;10.096;2023-04-15T06:27:15;195.73;;;70.90;;
73550;SDS011;61816;53.582;10.096;2023-04-15T06:29:41;192.73;;;70.82;;
73550;SDS011;61816;53.582;10.096;2023-04-15T06:32:07;192.88;;;69.82;;
73550;SDS011;61816;53.582;10.096;2023-04-15T06:34:32;198.43;;;71.82;;
73550;SDS011;61816;53.582;10.096;2023-04-15T06:36:58;204.13;;;71.40;;
73550;SDS011;61816;53.582;10.096;2023-04-15T06:39:23;201.60;;;68.00;;
73550;SDS011;61816;53.582;10.096;2023-04-15T06:41:48;190.60;;;67.07;;
73550;SDS011;61816;53.582;10.096;2023-04-15T06:44:14;161.05;;;62.13;;
73550;SDS011;61816;53.582;10.096;2023-04-15T06:46:40;168.48;;;67.15;;
73550;SDS011;61816;53.582;10.096;2023-04-15T06:49:05;170.40;;;64.60;;
73550;SDS011;61816;53.582;10.096;2023-04-15T06:51:31;161.63;;;62.63;;
73550;SDS011;61816;53.582;10.096;2023-04-15T06:53:56;155.88;;;64.80;;
73550;SDS011;61816;53.582;10.096;2023-04-15T06:56:22;155.30;;;65.93;;
73550;SDS011;61816;53.582;10.096;2023-04-15T06:58:47;157.90;;;66.10;;
73550;SDS011;61816;53.582;10.096;2023-04-15T07:01:13;133.65;;;61.45;;
73550;SDS011;61816;53.582;10.096;2023-04-15T07:03:38;131.43;;;59.83;;
73550;SDS011;61816;53.582;10.096;2023-04-15T07:06:03;120.38;;;61.38;;
73550;SDS011;61816;53.582;10.096;2023-04-15T07:08:31;119.22;;;59.00;;
73550;SDS011;61816;53.582;10.096;2023-04-15T07:10:58;119.93;;;56.88;;
73550;SDS011;61816;53.582;10.096;2023-04-15T07:13:24;128.10;;;62.60;;
73550;SDS011;61816;53.582;10.096;2023-04-15T07:15:50;136.45;;;62.42;;
73550;SDS011;61816;53.582;10.096;2023-04-15T07:18:15;130.43;;;61.22;;
73550;SDS011;61816;53.582;10.096;2023-04-15T07:20:41;121.18;;;58.42;;
73550;SDS011;61816;53.582;10.096;2023-04-15T07:23:07;122.28;;;55.70;;
73550;SDS011;61816;53.582;10.096;2023-04-15T07:25:33;116.15;;;57.40;;
73550;SDS011;61816;53.582;10.096;2023-04-15T07:27:58;135.13;;;60.90;;
73550;SDS011;61816;53.582;10.096;2023-04-15T07:30:23;127.40;;;58.95;;
73550;SDS011;61816;53.582;10.096;2023-04-15T07:32:49;117.32;;;55.67;;
73550;SDS011;61816;53.582;10.096;2023-04-15T07:35:14;125.47;;;60.88;;
73550;SDS011;61816;53.582;10.096;2023-04-15T07:37:40;115.95;;;55.03;;
73550;SDS011;61816;53.582;10.096;2023-04-15T07:40:07;119.70;;;55.60;;
73550;SDS011;61816;53.582;10.096;2023-04-15T07:42:34;126.60;;;59.58;;
73550;SDS011;61816;53.582;10.096;2023-04-15T07:44:59;115.38;;;57.72;;
73550;SDS011;61816;53.582;10.096;2023-04-15T07:47:25;132.98;;;58.97;;
73550;SDS011;61816;53.582;10.096;2023-04-15T07:49:51;126.03;;;60.42;;
73550;SDS011;61816;53.582;10.096;2023-04-15T07:52:17;118.35;;;56.80;;
73550;SDS011;61816;53.582;10.096;2023-04-15T07:54:42;133.02;;;60.70;;
73550;SDS011;61816;53.582;10.096;2023-04-15T07:57:08;126.07;;;58.92;;
73550;SDS011;61816;53.582;10.096;2023-04-15T07:59:33;125.68;;;59.05;;
73550;SDS011;61816;53.582;10.096;2023-04-15T08:01:59;117.18;;;59.40;;
73550;SDS011;61816;53.582;10.096;2023-04-15T08:04:24;124.55;;;55.78;;
73550;SDS011;61816;53.582;10.096;2023-04-15T08:06:50;135.98;;;58.90;;
73550;SDS011;61816;53.582;10.096;2023-04-15T08:09:16;122.97;;;55.38;;
73550;SDS011;61816;53.582;10.096;2023-04-15T08:11:42;117.63;;;55.05;;
73550;SDS011;61816;53.582;10.096;2023-04-15T08:14:07;121.03;;;59.20;;
73550;SDS011;61816;53.582;10.096;2023-04-15T08:16:33;129.02;;;61.58;;
73550;SDS011;61816;53.582;10.096;2023-04-15T08:18:59;116.75;;;55.58;;
73550;SDS011;61816;53.582;10.096;2023-04-15T08:21:24;112.70;;;55.22;;
73550;SDS011;61816;53.582;10.096;2023-04-15T08:23:50;110.78;;;54.47;;
73550;SDS011;61816;53.582;10.096;2023-04-15T08:26:16;117.45;;;57.60;;
73550;SDS011;61816;53.582;10.096;2023-04-15T08:28:43;117.43;;;58.67;;
73550;SDS011;61816;53.582;10.096;2023-04-15T08:31:09;117.05;;;54.72;;
73550;SDS011;61816;53.582;10.096;2023-04-15T08:33:35;123.93;;;59.05;;
73550;SDS011;61816;53.582;10.096;2023-04-15T08:36:00;116.38;;;57.47;;
73550;SDS011;61816;53.582;10.096;2023-04-15T08:38:26;108.82;;;56.03;;
73550;SDS011;61816;53.582;10.096;2023-04-15T08:40:51;108.63;;;56.17;;
73550;SDS011;61816;53.582;10.096;2023-04-15T08:43:20;104.50;;;54.50;;
73550;SDS011;61816;53.582;10.096;2023-04-15T08:45:51;114.03;;;54.88;;
73550;SDS011;61816;53.582;10.096;2023-04-15T08:48:17;105.15;;;52.90;;
73550;SDS011;61816;53.582;10.096;2023-04-15T08:50:43;116.10;;;55.65;;
73550;SDS011;61816;53.582;10.096;2023-04-15T08:53:10;116.97;;;58.20;;
73550;SDS011;61816;53.582;10.096;2023-04-15T08:55:35;133.52;;;60.72;;
73550;SDS011;61816;53.582;10.096;2023-04-15T08:58:14;113.50;;;53.92;;
73550;SDS011;61816;53.582;10.096;2023-04-15T09:00:40;116.88;;;57.67;;
73550;SDS011;61816;53.582;10.096;2023-04-15T09:03:06;113.30;;;60.40;;
73550;SDS011;61816;53.582;10.096;2023-04-15T09:05:36;116.50;;;57.58;;
73550;SDS011;61816;53.582;10.096;2023-04-15T09:08:03;114.90;;;57.10;;
73550;SDS011;61816;53.582;10.096;2023-04-15T09:10:29;108.30;;;53.28;;
73550;SDS011;61816;53.582;10.096;2023-04-15T09:12:55;107.00;;;53.25;;
73550;SDS011;61816;53.582;10.096;2023-04-15T09:15:22;113.18;;;56.72;;
73550;SDS011;61816;53.582;10.096;2023-04-15T09:17:49;110.18;;;54.58;;
73550;SDS011;61816;53.582;10.096;2023-04-15T09:20:15;97.90;;;55.60;;
73550;SDS011;61816;53.582;10.096;2023-04-15T09:22:43;104.00;;;53.50;;
73550;SDS011;61816;53.582;10.096;2023-04-15T09:27:56;101.78;;;53.63;;
73550;SDS011;61816;53.582;10.096;2023-04-15T09:30:23;89.00;;;48.40;;
73550;SDS011;61816;53.582;10.096;2023-04-15T09:32:57;93.90;;;49.03;;
73550;SDS011;61816;53.582;10.096;2023-04-15T09:35:24;84.32;;;46.65;;
73550;SDS011;61816;53.582;10.096;2023-04-15T09:37:50;96.78;;;48.30;;
73550;SDS011;61816;53.582;10.096;2023-04-15T09:40:39;85.63;;;45.85;;
73550;SDS011;61816;53.582;10.096;2023-04-15T09:43:06;84.03;;;44.45;;
73550;SDS011;61816;53.582;10.096;2023-04-15T09:45:34;71.85;;;43.15;;
73550;SDS011;61816;53.582;10.096;2023-04-15T09:48:19;66.68;;;38.53;;
73550;SDS011;61816;53.582;10.096;2023-04-15T09:50:47;68.32;;;37.88;;
73550;SDS011;61816;53.582;10.096;2023-04-15T09:53:17;69.75;;;38.70;;
73550;SDS011;61816;53.582;10.096;2023-04-15T09:58:19;65.10;;;36.90;;
73550;SDS011;61816;53.582;10.096;2023-04-15T10:00:55;51.25;;;31.42;;
73550;SDS011;61816;53.582;10.096;2023-04-15T10:03:23;50.15;;;29.77;;
73550;SDS011;61816;53.582;10.096;2023-04-15T10:05:53;55.88;;;29.55;;
73550;SDS011;61816;53.582;10.096;2023-04-15T10:08:21;55.25;;;31.13;;
73550;SDS011;61816;53.582;10.096;2023-04-15T10:10:49;46.22;;;28.05;;
73550;SDS011;61816;53.582;10.096;2023-04-15T10:13:17;49.10;;;25.65;;
73550;SDS011;61816;53.582;10.096;2023-04-15T10:15:44;44.40;;;26.92;;
73550;SDS011;61816;53.582;10.096;2023-04-15T10:18:12;42.10;;;26.45;;
73550;SDS011;61816;53.582;10.096;2023-04-15T10:20:40;48.58;;;30.48;;
73550;SDS011;61816;53.582;10.096;2023-04-15T10:23:07;48.90;;;30.88;;
73550;SDS011;61816;53.582;10.096;2023-04-15T10:25:33;49.17;;;28.95;;
73550;SDS011;61816;53.582;10.096;2023-04-15T10:27:59;49.78;;;27.17;;
73550;SDS011;61816;53.582;10.096;2023-04-15T10:30:24;46.08;;;26.92;;
73550;SDS011;61816;53.582;10.096;2023-04-15T10:32:50;42.00;;;25.80;;
73550;SDS011;61816;53.582;10.096;2023-04-15T10:35:16;34.70;;;22.85;;
73550;SDS011;61816;53.582;10.096;2023-04-15T10:37:43;35.53;;;21.90;;
73550;SDS011;61816;53.582;10.096;2023-04-15T10:40:24;37.63;;;24.60;;
73550;SDS011;61816;53.582;10.096;2023-04-15T10:43:02;33.85;;;23.00;;
73550;SDS011;61816;53.582;10.096;2023-04-15T10:45:31;38.35;;;24.75;;
73550;SDS011;61816;53.582;10.096;2023-04-15T10:47:58;36.15;;;22.27;;
73550;SDS011;61816;53.582;10.096;2023-04-15T10:50:26;37.33;;;22.33;;
73550;SDS011;61816;53.582;10.096;2023-04-15T10:52:54;34.75;;;21.77;;
73550;SDS011;61816;53.582;10.096;2023-04-15T10:55:21;34.95;;;19.60;;
73550;SDS011;61816;53.582;10.096;2023-04-15T10:57:57;35.85;;;18.65;;
73550;SDS011;61816;53.582;10.096;2023-04-15T11:00:24;27.88;;;18.42;;
73550;SDS011;61816;53.582;10.096;2023-04-15T11:05:21;26.02;;;16.55;;
73550;SDS011;61816;53.582;10.096;2023-04-15T11:08:10;26.80;;;16.52;;
73550;SDS011;61816;53.582;10.096;2023-04-15T11:13:03;22.48;;;14.93;;
73550;SDS011;61816;53.582;10.096;2023-04-15T11:15:53;23.13;;;15.98;;
73550;SDS011;61816;53.582;10.096;2023-04-15T11:18:25;24.77;;;16.73;;
73550;SDS011;61816;53.582;10.096;2023-04-15T11:20:53;23.48;;;15.68;;
73550;SDS011;61816;53.582;10.096;2023-04-15T11:26:10;21.73;;;16.40;;
73550;SDS011;61816;53.582;10.096;2023-04-15T11:28:37;32.30;;;16.52;;
73550;SDS011;61816;53.582;10.096;2023-04-15T11:31:09;26.60;;;16.05;;
73550;SDS011;61816;53.582;10.096;2023-04-15T11:36:02;26.33;;;16.83;;
73550;SDS011;61816;53.582;10.096;2023-04-15T11:38:28;24.85;;;16.48;;
73550;SDS011;61816;53.582;10.096;2023-04-15T11:40:54;28.73;;;16.75;;
73550;SDS011;61816;53.582;10.096;2023-04-15T11:43:20;24.25;;;14.95;;
73550;SDS011;61816;53.582;10.096;2023-04-15T11:45:54;24.65;;;13.75;;
73550;SDS011;61816;53.582;10.096;2023-04-15T11:48:24;26.52;;;14.65;;
73550;SDS011;61816;53.582;10.096;2023-04-15T11:50:56;19.35;;;13.93;;
73550;SDS011;61816;53.582;10.096;2023-04-15T11:53:24;20.85;;;15.02;;
73550;SDS011;61816;53.582;10.096;2023-04-15T11:56:01;23.65;;;14.23;;
73550;SDS011;61816;53.582;10.096;2023-04-15T11:58:29;20.88;;;13.48;;
73550;SDS011;61816;53.582;10.096;2023-04-15T12:00:58;20.10;;;13.13;;
73550;SDS011;61816;53.582;10.096;2023-04-15T12:03:26;24.38;;;13.23;;
73550;SDS011;61816;53.582;10.096;2023-04-15T12:08:55;23.00;;;14.35;;
73550;SDS011;61816;53.582;10.096;2023-04-15T12:11:43;21.25;;;13.15;;
73550;SDS011;61816;53.582;10.096;2023-04-15T12:16:46;26.80;;;15.98;;
73550;SDS011;61816;53.582;10.096;2023-04-15T12:19:14;29.92;;;15.82;;
73550;SDS011;61816;53.582;10.096;2023-04-15T12:21:47;23.75;;;13.73;;
73550;SDS011;61816;53.582;10.096;2023-04-15T12:24:12;23.00;;;14.70;;
73550;SDS011;61816;53.582;10.096;2023-04-15T12:26:45;28.92;;;16.27;;
73550;SDS011;61816;53.582;10.096;2023-04-15T12:29:18;20.70;;;13.95;;
73550;SDS011;61816;53.582;10.096;2023-04-15T12:32:18;25.17;;;13.55;;
73550;SDS011;61816;53.582;10.096;2023-04-15T12:34:39;22.42;;;14.38;;
73550;SDS011;61816;53.582;10.096;2023-04-15T12:37:07;20.98;;;14.20;;
73550;SDS011;61816;53.582;10.096;2023-04-15T12:39:35;23.55;;;14.20;;
73550;SDS011;61816;53.582;10.096;2023-04-15T12:42:02;28.55;;;13.50;;
73550;SDS011;61816;53.582;10.096;2023-04-15T12:44:29;23.42;;;13.57;;
73550;SDS011;61816;53.582;10.096;2023-04-15T12:46:54;25.33;;;14.43;;
73550;SDS011;61816;53.582;10.096;2023-04-15T12:49:20;24.25;;;14.32;;
73550;SDS011;61816;53.582;10.096;2023-04-15T12:51:50;23.13;;;13.32;;
73550;SDS011;61816;53.582;10.096;2023-04-15T12:54:18;23.90;;;14.60;;
73550;SDS011;61816;53.582;10.096;2023-04-15T12:56:44;24.45;;;15.43;;
73550;SDS011;61816;53.582;10.096;2023-04-15T12:59:10;24.15;;;15.27;;
73550;SDS011;61816;53.582;10.096;2023-04-15T13:01:37;21.98;;;14.07;;
73550;SDS011;61816;53.582;10.096;2023-04-15T13:04:02;27.85;;;14.73;;
73550;SDS011;61816;53.582;10.096;2023-04-15T13:06:28;26.80;;;15.43;;
73550;SDS011;61816;53.582;10.096;2023-04-15T13:08:53;24.55;;;15.38;;
73550;SDS011;61816;53.582;10.096;2023-04-15T13:11:22;24.02;;;15.05;;
73550;SDS011;61816;53.582;10.096;2023-04-15T13:13:48;19.98;;;13.63;;
73550;SDS011;61816;53.582;10.096;2023-04-15T13:16:13;23.85;;;13.77;;
73550;SDS011;61816;53.582;10.096;2023-04-15T13:18:38;25.65;;;14.63;;
73550;SDS011;61816;53.582;10.096;2023-04-15T13:21:04;25.00;;;13.00;;
73550;SDS011;61816;53.582;10.096;2023-04-15T13:23:32;19.38;;;12.70;;
73550;SDS011;61816;53.582;10.096;2023-04-15T13:25:57;20.50;;;12.55;;
73550;SDS011;61816;53.582;10.096;2023-04-15T13:28:23;20.88;;;13.45;;
73550;SDS011;61816;53.582;10.096;2023-04-15T13:30:48;15.80;;;11.55;;
73550;SDS011;61816;53.582;10.096;2023-04-15T13:33:15;21.63;;;13.68;;
73550;SDS011;61816;53.582;10.096;2023-04-15T13:35:41;20.95;;;13.20;;
73550;SDS011;61816;53.582;10.096;2023-04-15T13:38:07;21.23;;;13.20;;
73550;SDS011;61816;53.582;10.096;2023-04-15T13:40:32;24.88;;;13.55;;
73550;SDS011;61816;53.582;10.096;2023-04-15T13:42:58;24.55;;;14.32;;
73550;SDS011;61816;53.582;10.096;2023-04-15T13:45:24;23.52;;;12.77;;
73550;SDS011;61816;53.582;10.096;2023-04-15T13:47:50;21.38;;;12.80;;
73550;SDS011;61816;53.582;10.096;2023-04-15T13:50:15;18.42;;;12.45;;
73550;SDS011;61816;53.582;10.096;2023-04-15T13:52:41;20.95;;;12.93;;
73550;SDS011;61816;53.582;10.096;2023-04-15T13:55:06;17.45;;;12.27;;
73550;SDS011;61816;53.582;10.096;2023-04-15T13:57:32;18.23;;;11.60;;
73550;SDS011;61816;53.582;10.096;2023-04-15T13:59:58;54.80;;;12.60;;
73550;SDS011;61816;53.582;10.096;2023-04-15T14:02:23;18.83;;;11.30;;
73550;SDS011;61816;53.582;10.096;2023-04-15T14:04:49;13.90;;;9.48;;
73550;SDS011;61816;53.582;10.096;2023-04-15T14:07:14;23.42;;;10.35;;
73550;SDS011;61816;53.582;10.096;2023-04-15T14:09:40;17.73;;;11.35;;
73550;SDS011;61816;53.582;10.096;2023-04-15T14:12:05;13.85;;;10.40;;
73550;SDS011;61816;53.582;10.096;2023-04-15T14:14:31;18.30;;;10.45;;
73550;SDS011;61816;53.582;10.096;2023-04-15T14:16:56;15.80;;;10.60;;
73550;SDS011;61816;53.582;10.096;2023-04-15T14:19:22;18.15;;;10.68;;
73550;SDS011;61816;53.582;10.096;2023-04-15T14:21:49;17.83;;;10.93;;